sensor_id;sensor_type;location;lat;lon;timestamp;temperature;humidity
73572;DHT22;61854;48.510;-2.770;2022-10-16T00:01:21;13.80;94.60
73572;DHT22;61854;48.510;-2.770;2022-10-16T00:03:47;13.80;94.70
73572;DHT22;61854;48.510;-2.770;2022-10-16T00:06:14;13.80;94.70
73572;DHT22;61854;48.510;-2.770;2022-10-16T00:08:40;13.80;94.70
73572;DHT22;61854;48.510;-2.770;2022-10-16T00:11:24;13.90;94.70
73572;DHT22;61854;48.510;-2.770;2022-10-16T00:13:52;13.90;94.70
73572;DHT22;61854;48.510;-2.770;2022-10-16T00:16:19;14.00;94.50
73572;DHT22;61854;48.510;-2.770;2022-10-16T00:18:45;14.00;94.50
73572;DHT22;61854;48.510;-2.770;2022-10-16T00:21:14;14.00;94.40
73572;DHT22;61854;48.510;-2.770;2022-10-16T00:23:41;14.00;94.30
73572;DHT22;61854;48.510;-2.770;2022-10-16T00:26:15;13.90;94.20
73572;DHT22;61854;48.510;-2.770;2022-10-16T00:28:40;13.90;94.30
73572;DHT22;61854;48.510;-2.770;2022-10-16T00:31:09;13.90;94.40
73572;DHT22;61854;48.510;-2.770;2022-10-16T00:33:36;13.90;94.50
73572;DHT22;61854;48.510;-2.770;2022-10-16T00:36:03;13.80;94.50
73572;DHT22;61854;48.510;-2.770;2022-10-16T00:38:29;13.80;94.50
73572;DHT22;61854;48.510;-2.770;2022-10-16T00:40:55;13.80;94.50
73572;DHT22;61854;48.510;-2.770;2022-10-16T00:43:43;13.80;94.50
73572;DHT22;61854;48.510;-2.770;2022-10-16T00:46:31;13.70;94.60
73572;DHT22;61854;48.510;-2.770;2022-10-16T00:49:36;13.70;94.70
73572;DHT22;61854;48.510;-2.770;2022-10-16T00:51:55;13.60;94.80
73572;DHT22;61854;48.510;-2.770;2022-10-16T00:54:24;13.60;94.90
73572;DHT22;61854;48.510;-2.770;2022-10-16T00:56:51;13.60;94.90
73572;DHT22;61854;48.510;-2.770;2022-10-16T00:59:26;13.60;94.90
73572;DHT22;61854;48.510;-2.770;2022-10-16T01:01:53;13.50;95.00
73572;DHT22;61854;48.510;-2.770;2022-10-16T01:04:19;13.50;95.00
73572;DHT22;61854;48.510;-2.770;2022-10-16T01:12:32;13.50;95.10
73572;DHT22;61854;48.510;-2.770;2022-10-16T01:15:20;13.50;95.10
73572;DHT22;61854;48.510;-2.770;2022-10-16T01:21:08;13.40;95.10
73572;DHT22;61854;48.510;-2.770;2022-10-16T01:29:40;13.40;95.30
73572;DHT22;61854;48.510;-2.770;2022-10-16T01:34:50;13.40;95.30
73572;DHT22;61854;48.510;-2.770;2022-10-16T01:37:26;13.40;95.40
73572;DHT22;61854;48.510;-2.770;2022-10-16T01:39:56;13.40;95.30
73572;DHT22;61854;48.510;-2.770;2022-10-16T01:42:29;13.40;95.20
73572;DHT22;61854;48.510;-2.770;2022-10-16T01:44:56;13.40;95.20
73572;DHT22;61854;48.510;-2.770;2022-10-16T01:47:25;13.50;95.30
73572;DHT22;61854;48.510;-2.770;2022-10-16T01:49:53;13.50;95.30
73572;DHT22;61854;48.510;-2.770;2022-10-16T01:52:23;13.50;95.10
73572;DHT22;61854;48.510;-2.770;2022-10-16T01:54:52;13.50;95.00
73572;DHT22;61854;48.510;-2.770;2022-10-16T01:57:20;13.50;94.90
73572;DHT22;61854;48.510;-2.770;2022-10-16T01:59:53;13.50;94.90
73572;DHT22;61854;48.510;-2.770;2022-10-16T02:02:20;13.40;94.90
73572;DHT22;61854;48.510;-2.770;2022-10-16T02:04:51;13.40;94.90
73572;DHT22;61854;48.510;-2.770;2022-10-16T02:07:18;13.40;95.00
73572;DHT22;61854;48.510;-2.770;2022-10-16T02:09:44;13.40;95.00
73572;DHT22;61854;48.510;-2.770;2022-10-16T02:12:15;13.40;95.10
73572;DHT22;61854;48.510;-2.770;2022-10-16T02:14:44;13.40;95.10
73572;DHT22;61854;48.510;-2.770;2022-10-16T02:17:15;13.40;95.10
73572;DHT22;61854;48.510;-2.770;2022-10-16T02:19:42;13.40;95.20
73572;DHT22;61854;48.510;-2.770;2022-10-16T02:22:11;13.30;95.10
73572;DHT22;61854;48.510;-2.770;2022-10-16T02:24:57;13.30;95.00
73572;DHT22;61854;48.510;-2.770;2022-10-16T02:27:33;13.30;94.90
73572;DHT22;61854;48.510;-2.770;2022-10-16T02:32:41;13.20;95.10
73572;DHT22;61854;48.510;-2.770;2022-10-16T02:35:08;13.20;95.20
73572;DHT22;61854;48.510;-2.770;2022-10-16T02:37:34;13.20;95.20
73572;DHT22;61854;48.510;-2.770;2022-10-16T02:40:01;13.20;95.20
73572;DHT22;61854;48.510;-2.770;2022-10-16T02:42:39;13.20;95.20
73572;DHT22;61854;48.510;-2.770;2022-10-16T02:45:07;13.20;95.10
73572;DHT22;61854;48.510;-2.770;2022-10-16T02:47:33;13.20;95.00
73572;DHT22;61854;48.510;-2.770;2022-10-16T02:49:59;13.10;94.90
73572;DHT22;61854;48.510;-2.770;2022-10-16T02:52:25;13.10;95.00
73572;DHT22;61854;48.510;-2.770;2022-10-16T02:54:50;13.00;95.00
73572;DHT22;61854;48.510;-2.770;2022-10-16T02:57:17;13.00;95.20
73572;DHT22;61854;48.510;-2.770;2022-10-16T02:59:43;13.00;95.20
73572;DHT22;61854;48.510;-2.770;2022-10-16T03:02:09;12.90;95.20
73572;DHT22;61854;48.510;-2.770;2022-10-16T03:04:35;12.90;95.20
73572;DHT22;61854;48.510;-2.770;2022-10-16T03:07:00;12.90;95.40
73572;DHT22;61854;48.510;-2.770;2022-10-16T03:09:26;12.90;95.40
73572;DHT22;61854;48.510;-2.770;2022-10-16T03:11:51;12.80;95.40
73572;DHT22;61854;48.510;-2.770;2022-10-16T03:14:17;12.80;95.40
73572;DHT22;61854;48.510;-2.770;2022-10-16T03:16:43;12.80;95.30
73572;DHT22;61854;48.510;-2.770;2022-10-16T03:19:08;12.80;95.30
73572;DHT22;61854;48.510;-2.770;2022-10-16T03:21:34;12.70;95.50
73572;DHT22;61854;48.510;-2.770;2022-10-16T03:23:59;12.80;95.60
73572;DHT22;61854;48.510;-2.770;2022-10-16T03:26:25;12.80;95.60
73572;DHT22;61854;48.510;-2.770;2022-10-16T03:28:51;12.80;95.50
73572;DHT22;61854;48.510;-2.770;2022-10-16T03:31:16;12.80;95.50
73572;DHT22;61854;48.510;-2.770;2022-10-16T03:33:42;12.80;95.40
73572;DHT22;61854;48.510;-2.770;2022-10-16T03:36:07;12.80;95.30
73572;DHT22;61854;48.510;-2.770;2022-10-16T03:38:33;12.70;95.20
73572;DHT22;61854;48.510;-2.770;2022-10-16T03:40:59;12.70;95.20
73572;DHT22;61854;48.510;-2.770;2022-10-16T03:43:24;12.70;95.10
73572;DHT22;61854;48.510;-2.770;2022-10-16T03:45:51;12.60;95.10
73572;DHT22;61854;48.510;-2.770;2022-10-16T03:48:17;12.60;95.00
73572;DHT22;61854;48.510;-2.770;2022-10-16T03:50:43;12.50;95.00
73572;DHT22;61854;48.510;-2.770;2022-10-16T03:53:09;12.50;95.00
73572;DHT22;61854;48.510;-2.770;2022-10-16T03:55:35;12.50;95.00
73572;DHT22;61854;48.510;-2.770;2022-10-16T03:58:00;12.40;95.00
73572;DHT22;61854;48.510;-2.770;2022-10-16T04:00:27;12.40;95.20
73572;DHT22;61854;48.510;-2.770;2022-10-16T04:02:52;12.40;95.30
73572;DHT22;61854;48.510;-2.770;2022-10-16T04:05:18;12.40;95.30
73572;DHT22;61854;48.510;-2.770;2022-10-16T04:07:44;12.30;95.40
73572;DHT22;61854;48.510;-2.770;2022-10-16T04:10:09;12.40;95.40
73572;DHT22;61854;48.510;-2.770;2022-10-16T04:12:35;12.30;95.40
73572;DHT22;61854;48.510;-2.770;2022-10-16T04:15:01;12.30;95.50
73572;DHT22;61854;48.510;-2.770;2022-10-16T04:17:26;12.30;95.50
73572;DHT22;61854;48.510;-2.770;2022-10-16T04:19:52;12.30;95.50
73572;DHT22;61854;48.510;-2.770;2022-10-16T04:22:18;12.30;95.60
73572;DHT22;61854;48.510;-2.770;2022-10-16T04:24:43;12.30;95.60
73572;DHT22;61854;48.510;-2.770;2022-10-16T04:27:09;12.30;95.60
73572;DHT22;61854;48.510;-2.770;2022-10-16T04:29:34;12.30;95.90
73572;DHT22;61854;48.510;-2.770;2022-10-16T04:32:00;12.30;95.40
73572;DHT22;61854;48.510;-2.770;2022-10-16T04:34:26;12.30;95.30
73572;DHT22;61854;48.510;-2.770;2022-10-16T04:36:51;12.30;95.30
73572;DHT22;61854;48.510;-2.770;2022-10-16T04:39:17;12.30;95.30
73572;DHT22;61854;48.510;-2.770;2022-10-16T04:41:42;12.30;95.30
73572;DHT22;61854;48.510;-2.770;2022-10-16T04:44:08;12.20;95.30
73572;DHT22;61854;48.510;-2.770;2022-10-16T04:46:34;12.20;95.30
73572;DHT22;61854;48.510;-2.770;2022-10-16T04:48:59;12.20;95.40
73572;DHT22;61854;48.510;-2.770;2022-10-16T04:51:25;12.20;95.80
73572;DHT22;61854;48.510;-2.770;2022-10-16T04:53:51;12.20;95.30
73572;DHT22;61854;48.510;-2.770;2022-10-16T04:56:17;12.10;95.20
73572;DHT22;61854;48.510;-2.770;2022-10-16T04:58:43;12.10;95.30
73572;DHT22;61854;48.510;-2.770;2022-10-16T05:01:09;12.10;95.30
73572;DHT22;61854;48.510;-2.770;2022-10-16T05:03:34;12.10;95.50
73572;DHT22;61854;48.510;-2.770;2022-10-16T05:06:00;12.10;95.70
73572;DHT22;61854;48.510;-2.770;2022-10-16T05:08:25;12.10;95.70
73572;DHT22;61854;48.510;-2.770;2022-10-16T05:10:51;12.10;95.70
73572;DHT22;61854;48.510;-2.770;2022-10-16T05:13:17;12.00;95.70
73572;DHT22;61854;48.510;-2.770;2022-10-16T05:15:47;12.10;95.80
73572;DHT22;61854;48.510;-2.770;2022-10-16T05:18:13;12.10;95.90
73572;DHT22;61854;48.510;-2.770;2022-10-16T05:20:39;12.10;95.80
73572;DHT22;61854;48.510;-2.770;2022-10-16T05:23:04;12.10;95.90
73572;DHT22;61854;48.510;-2.770;2022-10-16T05:25:30;12.10;95.90
73572;DHT22;61854;48.510;-2.770;2022-10-16T05:27:56;12.10;95.80
73572;DHT22;61854;48.510;-2.770;2022-10-16T05:30:21;12.10;95.80
73572;DHT22;61854;48.510;-2.770;2022-10-16T05:32:48;12.10;95.80
73572;DHT22;61854;48.510;-2.770;2022-10-16T05:35:15;12.10;95.80
73572;DHT22;61854;48.510;-2.770;2022-10-16T05:37:40;12.10;95.90
73572;DHT22;61854;48.510;-2.770;2022-10-16T05:40:07;12.10;95.90
73572;DHT22;61854;48.510;-2.770;2022-10-16T05:42:32;12.20;96.00
73572;DHT22;61854;48.510;-2.770;2022-10-16T05:44:58;12.20;96.00
73572;DHT22;61854;48.510;-2.770;2022-10-16T05:47:24;12.20;95.90
73572;DHT22;61854;48.510;-2.770;2022-10-16T05:49:49;12.20;95.90
73572;DHT22;61854;48.510;-2.770;2022-10-16T05:52:15;12.20;95.80
73572;DHT22;61854;48.510;-2.770;2022-10-16T05:54:40;12.10;95.70
73572;DHT22;61854;48.510;-2.770;2022-10-16T05:57:06;12.10;96.30
73572;DHT22;61854;48.510;-2.770;2022-10-16T05:59:32;12.10;95.80
73572;DHT22;61854;48.510;-2.770;2022-10-16T06:01:57;12.10;95.90
73572;DHT22;61854;48.510;-2.770;2022-10-16T06:04:23;12.00;95.90
73572;DHT22;61854;48.510;-2.770;2022-10-16T06:06:49;12.00;95.90
73572;DHT22;61854;48.510;-2.770;2022-10-16T06:09:14;12.00;95.90
73572;DHT22;61854;48.510;-2.770;2022-10-16T06:11:40;12.00;96.00
73572;DHT22;61854;48.510;-2.770;2022-10-16T06:14:09;12.00;96.00
73572;DHT22;61854;48.510;-2.770;2022-10-16T06:16:35;12.00;96.00
73572;DHT22;61854;48.510;-2.770;2022-10-16T06:19:01;12.10;96.10
73572;DHT22;61854;48.510;-2.770;2022-10-16T06:21:28;12.10;95.90
73572;DHT22;61854;48.510;-2.770;2022-10-16T06:23:57;12.10;95.90
73572;DHT22;61854;48.510;-2.770;2022-10-16T06:26:26;12.10;95.90
73572;DHT22;61854;48.510;-2.770;2022-10-16T06:28:54;12.10;95.90
73572;DHT22;61854;48.510;-2.770;2022-10-16T06:31:20;12.10;95.90
73572;DHT22;61854;48.510;-2.770;2022-10-16T06:33:50;12.10;95.80
73572;DHT22;61854;48.510;-2.770;2022-10-16T06:36:17;12.10;96.30
73572;DHT22;61854;48.510;-2.770;2022-10-16T06:38:43;12.10;95.80
73572;DHT22;61854;48.510;-2.770;2022-10-16T06:41:12;12.10;95.80
73572;DHT22;61854;48.510;-2.770;2022-10-16T06:43:38;12.20;95.90
73572;DHT22;61854;48.510;-2.770;2022-10-16T06:46:05;12.20;95.80
73572;DHT22;61854;48.510;-2.770;2022-10-16T06:48:33;12.20;95.80
73572;DHT22;61854;48.510;-2.770;2022-10-16T06:53:26;12.30;95.70
73572;DHT22;61854;48.510;-2.770;2022-10-16T06:55:51;12.30;95.80
73572;DHT22;61854;48.510;-2.770;2022-10-16T06:58:17;12.30;95.80
73572;DHT22;61854;48.510;-2.770;2022-10-16T07:00:43;12.40;95.90
73572;DHT22;61854;48.510;-2.770;2022-10-16T07:03:08;12.40;95.90
73572;DHT22;61854;48.510;-2.770;2022-10-16T07:05:38;12.50;95.80
73572;DHT22;61854;48.510;-2.770;2022-10-16T07:08:04;12.50;95.60
73572;DHT22;61854;48.510;-2.770;2022-10-16T07:10:31;12.60;95.40
73572;DHT22;61854;48.510;-2.770;2022-10-16T07:12:57;12.70;95.40
73572;DHT22;61854;48.510;-2.770;2022-10-16T07:15:22;12.80;95.60
73572;DHT22;61854;48.510;-2.770;2022-10-16T07:17:48;12.80;95.40
73572;DHT22;61854;48.510;-2.770;2022-10-16T07:20:14;12.90;95.30
73572;DHT22;61854;48.510;-2.770;2022-10-16T07:22:39;12.90;95.00
73572;DHT22;61854;48.510;-2.770;2022-10-16T07:25:05;12.90;95.00
73572;DHT22;61854;48.510;-2.770;2022-10-16T07:27:31;12.90;95.10
73572;DHT22;61854;48.510;-2.770;2022-10-16T07:29:57;13.00;94.90
73572;DHT22;61854;48.510;-2.770;2022-10-16T07:32:22;13.00;94.90
73572;DHT22;61854;48.510;-2.770;2022-10-16T07:34:49;13.10;94.70
73572;DHT22;61854;48.510;-2.770;2022-10-16T07:37:14;13.10;94.90
73572;DHT22;61854;48.510;-2.770;2022-10-16T07:39:40;13.20;94.90
73572;DHT22;61854;48.510;-2.770;2022-10-16T07:42:05;13.20;94.90
73572;DHT22;61854;48.510;-2.770;2022-10-16T07:44:32;13.30;94.70
73572;DHT22;61854;48.510;-2.770;2022-10-16T07:46:58;13.30;94.70
73572;DHT22;61854;48.510;-2.770;2022-10-16T07:49:24;13.40;94.50
73572;DHT22;61854;48.510;-2.770;2022-10-16T07:51:50;13.40;94.00
73572;DHT22;61854;48.510;-2.770;2022-10-16T07:54:15;13.50;93.70
73572;DHT22;61854;48.510;-2.770;2022-10-16T07:56:41;13.50;93.70
73572;DHT22;61854;48.510;-2.770;2022-10-16T07:59:07;13.60;94.10
73572;DHT22;61854;48.510;-2.770;2022-10-16T08:01:32;13.70;94.00
73572;DHT22;61854;48.510;-2.770;2022-10-16T08:03:58;13.70;93.40
73572;DHT22;61854;48.510;-2.770;2022-10-16T08:06:23;13.70;93.30
73572;DHT22;61854;48.510;-2.770;2022-10-16T08:08:49;13.70;93.70
73572;DHT22;61854;48.510;-2.770;2022-10-16T08:11:15;13.80;93.40
73572;DHT22;61854;48.510;-2.770;2022-10-16T08:13:41;13.90;93.00
73572;DHT22;61854;48.510;-2.770;2022-10-16T08:16:07;13.90;92.90
73572;DHT22;61854;48.510;-2.770;2022-10-16T08:18:38;14.00;93.50
73572;DHT22;61854;48.510;-2.770;2022-10-16T08:21:04;14.00;93.40
73572;DHT22;61854;48.510;-2.770;2022-10-16T08:23:30;14.10;93.20
73572;DHT22;61854;48.510;-2.770;2022-10-16T08:26:02;14.10;92.80
73572;DHT22;61854;48.510;-2.770;2022-10-16T08:28:28;14.10;92.80
73572;DHT22;61854;48.510;-2.770;2022-10-16T08:30:54;14.20;93.40
73572;DHT22;61854;48.510;-2.770;2022-10-16T08:33:21;14.30;93.10
73572;DHT22;61854;48.510;-2.770;2022-10-16T08:35:53;14.40;93.10
73572;DHT22;61854;48.510;-2.770;2022-10-16T08:38:20;14.50;93.40
73572;DHT22;61854;48.510;-2.770;2022-10-16T08:40:45;14.60;93.80
73572;DHT22;61854;48.510;-2.770;2022-10-16T08:43:30;14.70;93.40
73572;DHT22;61854;48.510;-2.770;2022-10-16T08:48:56;14.80;93.40
73572;DHT22;61854;48.510;-2.770;2022-10-16T08:51:32;14.90;93.20
73572;DHT22;61854;48.510;-2.770;2022-10-16T08:56:48;14.80;93.60
73572;DHT22;61854;48.510;-2.770;2022-10-16T08:59:14;14.80;93.20
73572;DHT22;61854;48.510;-2.770;2022-10-16T09:01:44;14.80;93.80
73572;DHT22;61854;48.510;-2.770;2022-10-16T09:04:39;14.70;93.60
73572;DHT22;61854;48.510;-2.770;2022-10-16T09:13:02;14.80;94.00
73572;DHT22;61854;48.510;-2.770;2022-10-16T09:21:31;14.80;94.30
73572;DHT22;61854;48.510;-2.770;2022-10-16T09:24:12;14.80;94.30
73572;DHT22;61854;48.510;-2.770;2022-10-16T09:26:38;14.80;94.60
73572;DHT22;61854;48.510;-2.770;2022-10-16T09:29:04;14.80;94.80
73572;DHT22;61854;48.510;-2.770;2022-10-16T09:31:30;14.80;94.60
73572;DHT22;61854;48.510;-2.770;2022-10-16T09:33:59;14.80;94.70
73572;DHT22;61854;48.510;-2.770;2022-10-16T09:36:27;14.80;95.00
73572;DHT22;61854;48.510;-2.770;2022-10-16T09:39:08;14.80;95.10
73572;DHT22;61854;48.510;-2.770;2022-10-16T09:41:39;14.90;95.40
73572;DHT22;61854;48.510;-2.770;2022-10-16T09:44:49;14.90;95.70
73572;DHT22;61854;48.510;-2.770;2022-10-16T09:47:13;15.00;95.90
73572;DHT22;61854;48.510;-2.770;2022-10-16T09:49:54;15.00;95.90
73572;DHT22;61854;48.510;-2.770;2022-10-16T09:52:20;15.00;95.90
73572;DHT22;61854;48.510;-2.770;2022-10-16T09:57:20;15.00;95.80
73572;DHT22;61854;48.510;-2.770;2022-10-16T09:59:50;15.10;95.70
73572;DHT22;61854;48.510;-2.770;2022-10-16T10:02:20;15.10;95.60
73572;DHT22;61854;48.510;-2.770;2022-10-16T10:04:52;15.10;95.50
73572;DHT22;61854;48.510;-2.770;2022-10-16T10:07:32;15.10;95.40
73572;DHT22;61854;48.510;-2.770;2022-10-16T10:09:59;15.10;95.40
73572;DHT22;61854;48.510;-2.770;2022-10-16T10:12:27;15.20;95.30
73572;DHT22;61854;48.510;-2.770;2022-10-16T10:14:57;15.20;95.00
73572;DHT22;61854;48.510;-2.770;2022-10-16T10:17:27;15.20;95.00
73572;DHT22;61854;48.510;-2.770;2022-10-16T10:22:43;15.30;95.00
73572;DHT22;61854;48.510;-2.770;2022-10-16T10:33:31;15.60;94.20
73572;DHT22;61854;48.510;-2.770;2022-10-16T10:36:10;15.60;94.00
73572;DHT22;61854;48.510;-2.770;2022-10-16T10:42:08;15.60;93.50
73572;DHT22;61854;48.510;-2.770;2022-10-16T10:47:36;15.60;93.30
73572;DHT22;61854;48.510;-2.770;2022-10-16T10:50:30;15.60;93.20
73572;DHT22;61854;48.510;-2.770;2022-10-16T10:59:00;15.70;92.70
73572;DHT22;61854;48.510;-2.770;2022-10-16T11:07:52;15.80;91.30
73572;DHT22;61854;48.510;-2.770;2022-10-16T11:10:27;15.90;91.60
73572;DHT22;61854;48.510;-2.770;2022-10-16T11:13:47;15.90;91.20
73572;DHT22;61854;48.510;-2.770;2022-10-16T11:16:30;15.90;91.20
73572;DHT22;61854;48.510;-2.770;2022-10-16T11:21:28;15.90;90.70
73572;DHT22;61854;48.510;-2.770;2022-10-16T11:24:01;15.90;91.00
73572;DHT22;61854;48.510;-2.770;2022-10-16T11:26:35;15.90;90.70
73572;DHT22;61854;48.510;-2.770;2022-10-16T11:29:02;16.00;90.50
73572;DHT22;61854;48.510;-2.770;2022-10-16T11:31:45;16.00;90.40
73572;DHT22;61854;48.510;-2.770;2022-10-16T11:34:25;16.00;90.30
73572;DHT22;61854;48.510;-2.770;2022-10-16T11:36:57;16.00;90.60
73572;DHT22;61854;48.510;-2.770;2022-10-16T11:39:28;15.90;90.70
73572;DHT22;61854;48.510;-2.770;2022-10-16T11:42:10;15.90;91.10
73572;DHT22;61854;48.510;-2.770;2022-10-16T11:50:50;15.90;91.30
73572;DHT22;61854;48.510;-2.770;2022-10-16T11:53:13;15.90;91.30
73572;DHT22;61854;48.510;-2.770;2022-10-16T11:55:44;16.00;91.60
73572;DHT22;61854;48.510;-2.770;2022-10-16T11:58:19;16.00;91.80
73572;DHT22;61854;48.510;-2.770;2022-10-16T12:00:58;16.00;91.90
73572;DHT22;61854;48.510;-2.770;2022-10-16T12:05:58;15.90;91.80
73572;DHT22;61854;48.510;-2.770;2022-10-16T12:08:27;15.90;91.80
73572;DHT22;61854;48.510;-2.770;2022-10-16T12:10:53;15.90;92.10
73572;DHT22;61854;48.510;-2.770;2022-10-16T12:18:38;15.90;92.30
73572;DHT22;61854;48.510;-2.770;2022-10-16T12:21:05;15.90;92.50
73572;DHT22;61854;48.510;-2.770;2022-10-16T12:23:36;15.90;92.50
73572;DHT22;61854;48.510;-2.770;2022-10-16T12:26:04;15.90;92.70
73572;DHT22;61854;48.510;-2.770;2022-10-16T12:28:31;15.90;92.90
73572;DHT22;61854;48.510;-2.770;2022-10-16T12:31:03;15.90;93.50
73572;DHT22;61854;48.510;-2.770;2022-10-16T12:33:33;15.90;93.30
73572;DHT22;61854;48.510;-2.770;2022-10-16T12:36:01;15.90;93.40
73572;DHT22;61854;48.510;-2.770;2022-10-16T12:41:10;15.80;93.30
73572;DHT22;61854;48.510;-2.770;2022-10-16T12:43:41;15.80;93.40
73572;DHT22;61854;48.510;-2.770;2022-10-16T12:48:37;15.70;93.60
73572;DHT22;61854;48.510;-2.770;2022-10-16T12:51:24;15.60;93.80
73572;DHT22;61854;48.510;-2.770;2022-10-16T12:54:03;15.70;94.00
73572;DHT22;61854;48.510;-2.770;2022-10-16T13:07:26;15.70;94.00
73572;DHT22;61854;48.510;-2.770;2022-10-16T13:09:50;15.70;94.10
73572;DHT22;61854;48.510;-2.770;2022-10-16T13:18:34;15.70;94.60
73572;DHT22;61854;48.510;-2.770;2022-10-16T13:26:21;16.00;94.30
73572;DHT22;61854;48.510;-2.770;2022-10-16T13:28:48;16.10;93.80
73572;DHT22;61854;48.510;-2.770;2022-10-16T13:31:19;16.20;93.30
73572;DHT22;61854;48.510;-2.770;2022-10-16T13:33:51;16.30;93.30
73572;DHT22;61854;48.510;-2.770;2022-10-16T13:36:28;16.30;93.40
73572;DHT22;61854;48.510;-2.770;2022-10-16T13:39:06;16.40;93.30
73572;DHT22;61854;48.510;-2.770;2022-10-16T13:41:35;16.40;93.20
73572;DHT22;61854;48.510;-2.770;2022-10-16T13:44:00;16.50;93.20
73572;DHT22;61854;48.510;-2.770;2022-10-16T13:46:26;16.60;93.20
73572;DHT22;61854;48.510;-2.770;2022-10-16T13:49:10;16.60;93.20
73572;DHT22;61854;48.510;-2.770;2022-10-16T13:51:36;16.60;93.40
73572;DHT22;61854;48.510;-2.770;2022-10-16T13:54:02;16.60;93.20
73572;DHT22;61854;48.510;-2.770;2022-10-16T13:56:30;16.70;93.50
73572;DHT22;61854;48.510;-2.770;2022-10-16T13:59:04;16.70;93.30
73572;DHT22;61854;48.510;-2.770;2022-10-16T14:01:52;16.70;93.20
73572;DHT22;61854;48.510;-2.770;2022-10-16T14:04:19;16.60;93.30
73572;DHT22;61854;48.510;-2.770;2022-10-16T14:06:49;16.70;93.40
73572;DHT22;61854;48.510;-2.770;2022-10-16T14:09:25;16.70;93.40
73572;DHT22;61854;48.510;-2.770;2022-10-16T14:11:57;16.80;93.60
73572;DHT22;61854;48.510;-2.770;2022-10-16T14:14:24;16.80;93.70
73572;DHT22;61854;48.510;-2.770;2022-10-16T14:16:50;16.90;93.50
73572;DHT22;61854;48.510;-2.770;2022-10-16T14:19:25;16.90;93.60
73572;DHT22;61854;48.510;-2.770;2022-10-16T14:21:52;16.90;93.60
73572;DHT22;61854;48.510;-2.770;2022-10-16T14:24:32;17.00;93.40
73572;DHT22;61854;48.510;-2.770;2022-10-16T14:26:59;17.10;93.00
73572;DHT22;61854;48.510;-2.770;2022-10-16T14:29:27;17.10;92.90
73572;DHT22;61854;48.510;-2.770;2022-10-16T14:31:58;17.20;93.00
73572;DHT22;61854;48.510;-2.770;2022-10-16T14:34:27;17.20;92.90
73572;DHT22;61854;48.510;-2.770;2022-10-16T14:36:54;17.20;92.70
73572;DHT22;61854;48.510;-2.770;2022-10-16T14:39:22;17.30;92.40
73572;DHT22;61854;48.510;-2.770;2022-10-16T14:41:50;17.30;92.20
73572;DHT22;61854;48.510;-2.770;2022-10-16T14:44:24;17.20;92.30
73572;DHT22;61854;48.510;-2.770;2022-10-16T14:46:52;17.20;92.20
73572;DHT22;61854;48.510;-2.770;2022-10-16T14:49:19;17.30;92.20
73572;DHT22;61854;48.510;-2.770;2022-10-16T14:51:46;17.20;92.10
73572;DHT22;61854;48.510;-2.770;2022-10-16T14:54:14;17.20;91.90
73572;DHT22;61854;48.510;-2.770;2022-10-16T14:56:48;17.20;91.90
73572;DHT22;61854;48.510;-2.770;2022-10-16T14:59:24;17.30;91.90
73572;DHT22;61854;48.510;-2.770;2022-10-16T15:01:50;17.50;92.30
73572;DHT22;61854;48.510;-2.770;2022-10-16T15:04:16;17.80;91.20
73572;DHT22;61854;48.510;-2.770;2022-10-16T15:06:43;17.80;90.70
73572;DHT22;61854;48.510;-2.770;2022-10-16T15:09:08;17.80;90.60
73572;DHT22;61854;48.510;-2.770;2022-10-16T15:11:34;17.70;90.80
73572;DHT22;61854;48.510;-2.770;2022-10-16T15:14:00;17.70;91.10
73572;DHT22;61854;48.510;-2.770;2022-10-16T15:16:26;17.60;91.20
73572;DHT22;61854;48.510;-2.770;2022-10-16T15:18:52;17.50;91.60
73572;DHT22;61854;48.510;-2.770;2022-10-16T15:21:29;17.50;91.60
73572;DHT22;61854;48.510;-2.770;2022-10-16T15:23:56;17.40;91.70
73572;DHT22;61854;48.510;-2.770;2022-10-16T15:26:23;17.30;92.00
73572;DHT22;61854;48.510;-2.770;2022-10-16T15:28:48;17.20;92.00
73572;DHT22;61854;48.510;-2.770;2022-10-16T15:31:14;17.20;92.30
73572;DHT22;61854;48.510;-2.770;2022-10-16T15:33:40;17.10;92.60
73572;DHT22;61854;48.510;-2.770;2022-10-16T15:36:07;17.20;92.50
73572;DHT22;61854;48.510;-2.770;2022-10-16T15:38:33;17.20;92.50
73572;DHT22;61854;48.510;-2.770;2022-10-16T15:40:58;17.20;92.60
73572;DHT22;61854;48.510;-2.770;2022-10-16T15:43:24;17.10;92.60
73572;DHT22;61854;48.510;-2.770;2022-10-16T15:46:01;17.10;92.70
73572;DHT22;61854;48.510;-2.770;2022-10-16T15:48:29;17.10;92.70
73572;DHT22;61854;48.510;-2.770;2022-10-16T15:50:54;17.10;92.70
73572;DHT22;61854;48.510;-2.770;2022-10-16T15:53:20;17.10;92.60
73572;DHT22;61854;48.510;-2.770;2022-10-16T15:55:46;17.10;92.80
73572;DHT22;61854;48.510;-2.770;2022-10-16T15:58:11;17.10;92.70
73572;DHT22;61854;48.510;-2.770;2022-10-16T16:00:37;17.10;92.70
73572;DHT22;61854;48.510;-2.770;2022-10-16T16:03:03;17.10;92.80
73572;DHT22;61854;48.510;-2.770;2022-10-16T16:05:29;17.10;92.90
73572;DHT22;61854;48.510;-2.770;2022-10-16T16:07:54;17.00;92.90
73572;DHT22;61854;48.510;-2.770;2022-10-16T16:10:20;17.00;92.90
73572;DHT22;61854;48.510;-2.770;2022-10-16T16:12:47;17.00;93.10
73572;DHT22;61854;48.510;-2.770;2022-10-16T16:15:18;17.00;93.30
73572;DHT22;61854;48.510;-2.770;2022-10-16T16:17:44;16.90;93.60
73572;DHT22;61854;48.510;-2.770;2022-10-16T16:20:10;16.90;93.70
73572;DHT22;61854;48.510;-2.770;2022-10-16T16:22:36;16.80;94.00
73572;DHT22;61854;48.510;-2.770;2022-10-16T16:25:02;16.80;94.20
73572;DHT22;61854;48.510;-2.770;2022-10-16T16:27:28;16.70;94.30
73572;DHT22;61854;48.510;-2.770;2022-10-16T16:29:55;16.70;94.50
73572;DHT22;61854;48.510;-2.770;2022-10-16T16:32:21;16.70;94.50
73572;DHT22;61854;48.510;-2.770;2022-10-16T16:34:47;16.70;94.60
73572;DHT22;61854;48.510;-2.770;2022-10-16T16:37:13;16.70;94.80
73572;DHT22;61854;48.510;-2.770;2022-10-16T16:39:38;16.60;94.90
73572;DHT22;61854;48.510;-2.770;2022-10-16T16:42:04;16.60;95.00
73572;DHT22;61854;48.510;-2.770;2022-10-16T16:44:32;16.60;95.20
73572;DHT22;61854;48.510;-2.770;2022-10-16T16:46:57;16.60;95.30
73572;DHT22;61854;48.510;-2.770;2022-10-16T16:49:23;16.60;95.40
73572;DHT22;61854;48.510;-2.770;2022-10-16T16:51:48;16.60;95.50
73572;DHT22;61854;48.510;-2.770;2022-10-16T16:54:14;16.60;95.60
73572;DHT22;61854;48.510;-2.770;2022-10-16T16:56:40;16.50;95.70
73572;DHT22;61854;48.510;-2.770;2022-10-16T16:59:13;16.50;95.80
73572;DHT22;61854;48.510;-2.770;2022-10-16T17:01:39;16.60;95.90
73572;DHT22;61854;48.510;-2.770;2022-10-16T17:04:05;16.50;96.00
73572;DHT22;61854;48.510;-2.770;2022-10-16T17:06:31;16.50;96.50
73572;DHT22;61854;48.510;-2.770;2022-10-16T17:08:58;16.50;96.50
73572;DHT22;61854;48.510;-2.770;2022-10-16T17:11:26;16.50;96.10
73572;DHT22;61854;48.510;-2.770;2022-10-16T17:13:53;16.60;96.10
73572;DHT22;61854;48.510;-2.770;2022-10-16T17:16:20;16.60;96.10
73572;DHT22;61854;48.510;-2.770;2022-10-16T17:18:46;16.60;96.20
73572;DHT22;61854;48.510;-2.770;2022-10-16T17:21:11;16.60;96.00